James Turecamo — WDC7565 — position and weather

sailwx.info

Track history (hours):
 
Tides and Currents Weather Stations Pressure Air Temp Water Temp Dewpoint Dewpoint Depression Visibility Wind Speed Wind Dir Waves Ship Positions

James Turecamo

Owner: Moran Towing Corporation, New Canaan, CT. More information available from US FCC via Universal Licensing System and Coast Guard Vessel Documentation Center.

Last reported at 2017-Sep-22 01:59 UTC. Time now 2017-Sep-22 06:30 UTC.
Position N 40°38' W 074°08'.

Length 30 m; draft 3.9 m.

Type: Tug. MMSI: 367073380.

Date/timePositionNaut miles runAvg speedWind from/ knotsBaromVisibWave heightAir tempDewpointWater temp
2017-Sep-22 01:59N 40°38' W 074°08'0 0.0
2017-Sep-22 01:23N 40°38' W 074°08'0 0.0
2017-Sep-22 00:53N 40°38' W 074°08'0 0.0
2017-Sep-22 00:29N 40°38' W 074°08'0 0.0
2017-Sep-21 23:56N 40°38' W 074°08'0 0.0
2017-Sep-21 23:26N 40°38' W 074°08'0 0.0
2017-Sep-21 22:56N 40°38' W 074°08'0 0.0
2017-Sep-21 21:47N 40°38' W 074°08'0 0.0
2017-Sep-21 21:17N 40°38' W 074°08'0 0.0
2017-Sep-21 21:01N 40°38' W 074°08'1 1.3
2017-Sep-21 20:31N 40°39' W 074°07'1 1.3
2017-Sep-21 19:59N 40°38' W 074°08'0 0.0
2017-Sep-21 19:20N 40°38' W 074°08'0 0.0
2017-Sep-21 18:55N 40°38' W 074°08'0 0.0
2017-Sep-21 18:30N 40°38' W 074°08'0 0.0
2017-Sep-21 18:00N 40°38' W 074°08'0 0.0
2017-Sep-21 17:30N 40°38' W 074°08'0 0.0
2017-Sep-21 17:00N 40°38' W 074°08'0 0.0
2017-Sep-21 16:30N 40°38' W 074°08'0 0.0
2017-Sep-21 16:00N 40°38' W 074°08'2 4.5
2017-Sep-21 15:31N 40°39' W 074°05'4 7.9
2017-Sep-21 15:01N 40°42' W 074°02'5 9.9
2017-Sep-21 14:30N 40°47' W 073°60'3 6.6
2017-Sep-21 14:00N 40°50' W 073°58'511.0
2017-Sep-21 13:31N 40°45' W 074°01'612.0
2017-Sep-21 13:00N 40°40' W 074°04'3 6.0
2017-Sep-21 12:30N 40°38' W 074°08'0 0.0
2017-Sep-21 12:00N 40°38' W 074°08'0 0.0
2017-Sep-21 11:24N 40°38' W 074°08'0 0.0
2017-Sep-21 11:00N 40°38' W 074°08'0 0.0
2017-Sep-21 10:30N 40°38' W 074°08'0 0.0
2017-Sep-21 10:00N 40°38' W 074°08'0 0.0
2017-Sep-21 09:21N 40°38' W 074°08'0 0.0
2017-Sep-21 09:00N 40°38' W 074°08'0 0.0
2017-Sep-21 08:27N 40°38' W 074°08'0 0.0
2017-Sep-21 07:57N 40°38' W 074°08'0 0.0
2017-Sep-21 07:27N 40°38' W 074°08'0 0.0
2017-Sep-21 06:57N 40°38' W 074°08'0 0.0
2017-Sep-21 06:27N 40°38' W 074°08'0 0.0
2017-Sep-21 06:00N 40°38' W 074°08'0 0.0
2017-Sep-21 05:27N 40°38' W 074°08'0 0.0
2017-Sep-21 04:57N 40°38' W 074°08'0 0.0
2017-Sep-21 04:30N 40°38' W 074°08'0 0.0
2017-Sep-21 03:57N 40°38' W 074°08'0 0.0
2017-Sep-21 03:27N 40°38' W 074°08'0 0.0
2017-Sep-21 02:57N 40°38' W 074°08'0 0.0
2017-Sep-21 02:27N 40°38' W 074°08'0 0.0
2017-Sep-21 01:57N 40°38' W 074°08'0 0.0
2017-Sep-21 01:27N 40°38' W 074°08'0 0.0
2017-Sep-21 00:45N 40°38' W 074°08'0 0.0
2017-Sep-21 00:30N 40°38' W 074°08'0 0.0
2017-Sep-20 23:57N 40°38' W 074°08'0 0.0
2017-Sep-20 23:27N 40°38' W 074°08'0 0.0
2017-Sep-20 22:57N 40°38' W 074°08'0 0.0
2017-Sep-20 22:30N 40°38' W 074°08'0 0.0
2017-Sep-20 21:57N 40°38' W 074°08'0 0.0
2017-Sep-20 21:30N 40°38' W 074°08'0 0.0
2017-Sep-20 20:57N 40°38' W 074°08'0 0.0
2017-Sep-20 20:27N 40°38' W 074°08'0 0.0
2017-Sep-20 20:00N 40°38' W 074°08'0 0.0
2017-Sep-20 19:30N 40°38' W 074°08'0 0.0
2017-Sep-20 18:54N 40°38' W 074°08'0 0.0
2017-Sep-20 18:30N 40°38' W 074°08'0 0.0
2017-Sep-20 18:00N 40°38' W 074°08'0 0.9
2017-Sep-20 17:30N 40°39' W 074°08'4 6.8
2017-Sep-20 16:58N 40°36' W 074°12'0 0.0
2017-Sep-20 16:25N 40°36' W 074°12'1 1.3
2017-Sep-20 16:00N 40°37' W 074°12'4 2.6
2017-Sep-20 14:37N 40°38' W 074°08'0 0.0
2017-Sep-20 13:46N 40°38' W 074°08'0 0.0
2017-Sep-20 13:28N 40°38' W 074°08'0 0.0
2017-Sep-20 12:59N 40°38' W 074°08'0 0.9
2017-Sep-20 12:30N 40°39' W 074°07'1 1.8
2017-Sep-20 12:01N 40°39' W 074°06'1 2.5
2017-Sep-20 11:29N 40°38' W 074°08'0 0.0
2017-Sep-20 10:58N 40°38' W 074°08'0 0.0
2017-Sep-20 10:28N 40°38' W 074°08'0 0.0
2017-Sep-20 09:52N 40°38' W 074°08'0 0.0
2017-Sep-20 09:28N 40°38' W 074°08'0 0.0
2017-Sep-20 08:58N 40°38' W 074°08'0 0.0
2017-Sep-20 08:28N 40°38' W 074°08'0 0.0
2017-Sep-20 06:43N 40°38' W 074°08'0 0.0
2017-Sep-20 06:19N 40°38' W 074°08'0 0.0
2017-Sep-20 05:37N 40°38' W 074°08'0 0.0
2017-Sep-20 05:25N 40°38' W 074°08'0 0.0
2017-Sep-20 05:00N 40°38' W 074°08'0 0.0
2017-Sep-20 04:29N 40°38' W 074°08'0 0.0
2017-Sep-20 03:59N 40°38' W 074°08'0 0.0
2017-Sep-20 03:30N 40°38' W 074°08'0 0.0
2017-Sep-20 03:00N 40°38' W 074°08'0 0.0
2017-Sep-20 02:30N 40°38' W 074°08'1 2.9
2017-Sep-20 02:00N 40°40' W 074°09'0 0.3
2017-Sep-20 01:30N 40°40' W 074°09'0 0.0
2017-Sep-20 01:00N 40°40' W 074°09'1 2.8
2017-Sep-20 00:31N 40°39' W 074°08'0 0.1
2017-Sep-19 23:51N 40°38' W 074°08'0 0.0
2017-Sep-19 23:27N 40°38' W 074°08'0 0.0
2017-Sep-19 23:00N 40°38' W 074°08'1 1.4
2017-Sep-19 22:31N 40°38' W 074°09'3 5.5
2017-Sep-19 22:00N 40°41' W 074°08'1 1.4
2017-Sep-19 21:29N 40°42' W 074°09'1 3.0
2017-Sep-19 21:00N 40°40' W 074°08'2 3.6
2017-Sep-19 20:28N 40°38' W 074°08'0 0.0
2017-Sep-19 19:58N 40°38' W 074°08'0 1.0
2017-Sep-19 19:30N 40°39' W 074°07'1 1.2
2017-Sep-19 18:42N 40°39' W 074°06'1 4.2
2017-Sep-19 18:31N 40°39' W 074°05'2 3.0
2017-Sep-19 17:59N 40°39' W 074°03'0 0.1
2017-Sep-19 17:26N 40°39' W 074°03'0 0.2
2017-Sep-19 16:59N 40°39' W 074°03'2 3.5
2017-Sep-19 16:30N 40°39' W 074°05'2 2.4
2017-Sep-19 15:38N 40°38' W 074°08'0 0.0
2017-Sep-19 15:14N 40°38' W 074°08'0 0.0
2017-Sep-19 14:59N 40°38' W 074°08'0 0.0
2017-Sep-19 14:29N 40°38' W 074°08'0 0.0
2017-Sep-19 13:59N 40°38' W 074°08'0 0.0
2017-Sep-19 13:30N 40°38' W 074°08'0 0.0
2017-Sep-19 12:59N 40°38' W 074°08'1 2.8
2017-Sep-19 12:30N 40°39' W 074°06'2 4.9
2017-Sep-19 12:00N 40°39' W 074°03'1 2.2
2017-Sep-19 11:30N 40°38' W 074°03'4 7.0
2017-Sep-19 11:00N 40°39' W 074°08'0 0.3
2017-Sep-19 10:28N 40°38' W 074°08'0 0.0
2017-Sep-19 09:28N 40°38' W 074°08'0 0.0
2017-Sep-19 08:40N 40°38' W 074°08'0 0.0
2017-Sep-19 08:28N 40°38' W 074°08'0 0.0
2017-Sep-19 07:58N 40°38' W 074°08'0 0.0
2017-Sep-19 07:28N 40°38' W 074°08'0 0.0
2017-Sep-19 07:00N 40°38' W 074°08'0 0.0
2017-Sep-19 06:30N 40°38' W 074°08'0 0.0
2017-Sep-19 06:00N 40°38' W 074°08'0 0.0
2017-Sep-19 05:30N 40°38' W 074°08'0 0.0
2017-Sep-19 05:00N 40°38' W 074°08'0 0.0
2017-Sep-19 04:30N 40°38' W 074°08'0 0.0
2017-Sep-19 04:00N 40°38' W 074°08'1 3.0
2017-Sep-19 03:30N 40°39' W 074°06'510.7
2017-Sep-19 03:00N 40°43' W 074°01'511.0
2017-Sep-19 02:30N 40°48' W 073°59'510.5
2017-Sep-19 02:00N 40°53' W 073°56'3 4.5
2017-Sep-19 01:20N 40°56' W 073°54'0 0.1
2017-Sep-19 00:59N 40°56' W 073°54'0 0.0
2017-Sep-18 23:11N 40°56' W 073°54'312.4
2017-Sep-18 22:58N 40°53' W 073°56'613.2
2017-Sep-18 22:30N 40°48' W 073°59'612.6
2017-Sep-18 22:00N 40°42' W 074°02'510.1
2017-Sep-18 21:30N 40°39' W 074°07'2 3.0
2017-Sep-18 21:00N 40°40' W 074°08'2 3.3
2017-Sep-18 20:30N 40°41' W 074°08'0 0.1
2017-Sep-18 20:00N 40°41' W 074°08'3 5.6
2017-Sep-18 19:31N 40°39' W 074°09'1 1.1
2017-Sep-18 18:38N 40°38' W 074°08'0 0.0
2017-Sep-18 18:14N 40°38' W 074°08'0 0.0
2017-Sep-18 17:48N 40°38' W 074°08'2 5.9
2017-Sep-18 17:30N 40°39' W 074°06'1 1.0
2017-Sep-18 16:59N 40°39' W 074°05'2 4.6
2017-Sep-18 16:30N 40°38' W 074°08'0 0.1
2017-Sep-18 15:53N 40°38' W 074°08'0 0.0
2017-Sep-18 15:29N 40°38' W 074°08'0 0.0
2017-Sep-18 12:47N 40°38' W 074°08'0 0.0
2017-Sep-18 12:29N 40°38' W 074°08'0 0.0
2017-Sep-18 11:23N 40°38' W 074°08'0 0.0
2017-Sep-18 10:59N 40°38' W 074°08'0 0.0
2017-Sep-18 09:26N 40°38' W 074°08'0 0.0
2017-Sep-18 08:38N 40°38' W 074°08'0 0.0
2017-Sep-18 06:12N 40°38' W 074°08'0 0.0
2017-Sep-18 05:59N 40°38' W 074°08'0 0.0
2017-Sep-18 05:22N 40°38' W 074°08'0 0.0
2017-Sep-18 04:27N 40°38' W 074°08'0 0.0
2017-Sep-18 03:55N 40°38' W 074°08'0 0.0
2017-Sep-18 03:30N 40°38' W 074°08'0 0.0
2017-Sep-18 03:01N 40°38' W 074°08'0 0.1
2017-Sep-18 02:29N 40°38' W 074°08'4 7.6
2017-Sep-18 02:01N 40°41' W 074°04'0 0.1
2017-Sep-18 01:31N 40°41' W 074°04'0 0.2
2017-Sep-18 01:01N 40°41' W 074°04'2 4.0
2017-Sep-18 00:30N 40°39' W 074°03'2 3.1
2017-Sep-18 00:01N 40°39' W 074°05'2 3.4
2017-Sep-17 23:25N 40°38' W 074°08'0 0.0
2017-Sep-17 23:01N 40°38' W 074°08'0 0.0
2017-Sep-17 22:25N 40°38' W 074°08'0 0.0
2017-Sep-17 21:54N 40°38' W 074°08'0 0.0
2017-Sep-17 20:00N 40°38' W 074°08'0 0.0
2017-Sep-17 19:24N 40°38' W 074°08'0 0.0
2017-Sep-17 19:00N 40°38' W 074°08'0 0.0
2017-Sep-17 18:30N 40°38' W 074°08'0 0.0
2017-Sep-17 18:00N 40°38' W 074°08'0 0.0
2017-Sep-17 17:27N 40°38' W 074°08'0 0.0
2017-Sep-17 16:57N 40°38' W 074°08'0 0.0
2017-Sep-17 16:15N 40°38' W 074°08'0 0.0
2017-Sep-17 15:58N 40°38' W 074°08'0 0.0
2017-Sep-17 15:30N 40°38' W 074°08'0 0.0
2017-Sep-17 14:57N 40°38' W 074°08'0 0.0
2017-Sep-17 14:30N 40°38' W 074°08'0 0.0
2017-Sep-17 13:54N 40°38' W 074°08'0 0.0
2017-Sep-17 13:27N 40°38' W 074°08'0 0.0
2017-Sep-17 12:57N 40°38' W 074°08'0 0.0
2017-Sep-17 12:30N 40°38' W 074°08'0 0.0
2017-Sep-17 11:57N 40°38' W 074°08'0 0.0
2017-Sep-17 11:24N 40°38' W 074°08'0 0.0
2017-Sep-17 11:00N 40°38' W 074°08'0 0.0
2017-Sep-17 10:30N 40°38' W 074°08'0 0.0
2017-Sep-17 09:54N 40°38' W 074°08'0 0.0
2017-Sep-17 09:30N 40°38' W 074°08'0 0.0
2017-Sep-17 09:00N 40°38' W 074°08'0 0.0
2017-Sep-17 08:30N 40°38' W 074°08'0 0.0
2017-Sep-17 08:00N 40°38' W 074°08'0 0.0
2017-Sep-17 07:30N 40°38' W 074°08'0 0.0
2017-Sep-17 07:00N 40°38' W 074°08'0 0.0
2017-Sep-17 06:30N 40°38' W 074°08'0 0.0
2017-Sep-17 06:00N 40°38' W 074°08'0 0.0
2017-Sep-17 05:30N 40°38' W 074°08'0 0.0
2017-Sep-17 05:00N 40°38' W 074°08'0 0.0
2017-Sep-17 04:30N 40°38' W 074°08'0 0.0
2017-Sep-17 04:00N 40°38' W 074°08'0 0.0
2017-Sep-17 03:30N 40°38' W 074°08'0 0.0
2017-Sep-17 03:00N 40°38' W 074°08'0 0.0
2017-Sep-17 02:30N 40°38' W 074°08'0 0.0
2017-Sep-17 02:00N 40°38' W 074°08'0 0.0
2017-Sep-17 01:30N 40°38' W 074°08'0 0.0
2017-Sep-17 01:00N 40°38' W 074°08'0 0.0
2017-Sep-17 00:30N 40°38' W 074°08'0 0.0
2017-Sep-17 00:00N 40°38' W 074°08'2 3.7
2017-Sep-16 23:30N 40°39' W 074°10'7 9.6
2017-Sep-16 22:45N 40°33' W 074°15'0 0.5
2017-Sep-16 22:18N 40°32' W 074°15'2 1.3
2017-Sep-16 20:57N 40°33' W 074°13'4 9.5
2017-Sep-16 20:29N 40°38' W 074°12'3 7.1
2017-Sep-16 20:00N 40°38' W 074°08'0 0.0
2017-Sep-16 19:30N 40°38' W 074°08'0 0.0
2017-Sep-16 19:00N 40°38' W 074°08'0 0.0
2017-Sep-16 18:30N 40°38' W 074°08'0 0.0
2017-Sep-16 18:00N 40°38' W 074°08'0 0.0
2017-Sep-16 17:30N 40°38' W 074°08'0 0.0
2017-Sep-16 17:00N 40°38' W 074°08'0 0.0
2017-Sep-16 16:30N 40°38' W 074°08'0 0.0
2017-Sep-16 16:00N 40°38' W 074°08'0 0.0
2017-Sep-16 15:30N 40°38' W 074°08'0 0.0
2017-Sep-16 15:00N 40°38' W 074°08'0 0.0
2017-Sep-16 14:30N 40°38' W 074°08'0 0.0
2017-Sep-16 14:00N 40°38' W 074°08'0 0.0
2017-Sep-16 13:30N 40°38' W 074°08'0 0.0
2017-Sep-16 13:00N 40°38' W 074°08'0 0.0
2017-Sep-16 12:30N 40°38' W 074°08'1 1.9
2017-Sep-16 12:01N 40°39' W 074°09'3 4.5
2017-Sep-16 11:26N 40°38' W 074°12'0 0.4
2017-Sep-16 11:00N 40°38' W 074°12'2 4.3
2017-Sep-16 10:30N 40°39' W 074°10'2 3.1
2017-Sep-16 10:00N 40°38' W 074°08'0 0.0
2017-Sep-16 09:30N 40°38' W 074°08'0 0.0
2017-Sep-16 09:00N 40°38' W 074°08'0 0.0
2017-Sep-16 08:30N 40°38' W 074°08'0 0.0
2017-Sep-16 08:00N 40°38' W 074°08'0 0.4
2017-Sep-16 07:31N 40°39' W 074°08'4 8.1
2017-Sep-16 07:00N 40°36' W 074°12'1 1.3
2017-Sep-16 06:30N 40°35' W 074°12'2 0.7
2017-Sep-16 03:10N 40°33' W 074°14'2 9.5
2017-Sep-16 02:57N 40°35' W 074°13'0 0.1
2017-Sep-16 02:30N 40°35' W 074°13'0 0.0
2017-Sep-16 02:00N 40°35' W 074°13'0 0.6
2017-Sep-16 01:29N 40°35' W 074°13'2 0.3
2017-Sep-15 20:20N 40°33' W 074°14'3 8.8
2017-Sep-15 19:59N 40°36' W 074°12'4 7.6
2017-Sep-15 19:30N 40°39' W 074°09'1 1.0
2017-Sep-15 18:55N 40°38' W 074°08'0 0.0
2017-Sep-15 18:28N 40°38' W 074°08'0 0.0
2017-Sep-15 17:58N 40°38' W 074°08'0 0.0
2017-Sep-15 17:22N 40°38' W 074°08'0 0.0
2017-Sep-15 16:55N 40°38' W 074°08'0 0.0
2017-Sep-15 16:01N 40°38' W 074°08'0 0.0
2017-Sep-15 15:52N 40°38' W 074°08'0 0.0
2017-Sep-15 15:28N 40°38' W 074°08'0 0.0
2017-Sep-15 14:43N 40°38' W 074°08'0 0.0
2017-Sep-15 14:22N 40°38' W 074°08'0 0.0
2017-Sep-15 13:49N 40°38' W 074°08'0 0.0
2017-Sep-15 13:28N 40°38' W 074°08'1 2.9
2017-Sep-15 12:59N 40°39' W 074°06'0 0.1
2017-Sep-15 12:29N 40°39' W 074°06'2 4.1
2017-Sep-15 12:01N 40°39' W 074°03'2 3.7
2017-Sep-15 11:31N 40°39' W 074°06'2 2.3
2017-Sep-15 10:51N 40°38' W 074°08'0 0.0
2017-Sep-15 10:27N 40°38' W 074°08'0 0.0
2017-Sep-15 09:51N 40°38' W 074°08'0 0.0
2017-Sep-15 09:30N 40°38' W 074°08'0 0.0
2017-Sep-15 08:57N 40°38' W 074°08'0 0.0
2017-Sep-15 08:27N 40°38' W 074°08'0 0.0
2017-Sep-15 08:00N 40°38' W 074°08'0 0.0
2017-Sep-15 07:30N 40°38' W 074°08'0 0.0
2017-Sep-15 07:00N 40°38' W 074°08'0 0.0
2017-Sep-15 06:31N 40°38' W 074°08'0 0.8
2017-Sep-15 06:00N 40°39' W 074°08'3 6.2
2017-Sep-15 05:31N 40°38' W 074°12'0 0.7
2017-Sep-15 05:00N 40°38' W 074°12'3 6.4
2017-Sep-15 04:31N 40°39' W 074°08'0 0.2
2017-Sep-15 04:00N 40°38' W 074°08'0 0.0
2017-Sep-15 03:30N 40°38' W 074°08'0 0.0
2017-Sep-15 03:00N 40°38' W 074°08'0 0.0
2017-Sep-15 02:31N 40°38' W 074°08'0 0.1
2017-Sep-15 02:00N 40°38' W 074°08'4 7.1
2017-Sep-15 01:30N 40°37' W 074°03'1 2.6
2017-Sep-15 01:01N 40°38' W 074°04'3 5.8
2017-Sep-15 00:31N 40°38' W 074°08'0 0.0
2017-Sep-15 00:00N 40°38' W 074°08'0 0.0
2017-Sep-14 23:30N 40°38' W 074°08'0 0.0
2017-Sep-14 23:01N 40°38' W 074°08'0 0.0
2017-Sep-14 22:30N 40°38' W 074°08'0 0.0
2017-Sep-14 22:00N 40°38' W 074°08'3 6.0
2017-Sep-14 21:30N 40°38' W 074°12'1 1.6
2017-Sep-14 21:00N 40°38' W 074°12'2 4.0
2017-Sep-14 20:30N 40°39' W 074°10'3 5.3
2017-Sep-14 20:00N 40°39' W 074°07'1 2.7
2017-Sep-14 19:31N 40°39' W 074°05'2 4.3
2017-Sep-14 19:01N 40°39' W 074°08'0 0.1
2017-Sep-14 18:30N 40°38' W 074°08'0 0.0
2017-Sep-14 18:00N 40°38' W 074°08'0 0.0
2017-Sep-14 17:24N 40°38' W 074°08'3 6.9
2017-Sep-14 17:00N 40°39' W 074°04'1 2.2
2017-Sep-14 16:30N 40°39' W 074°06'2 3.0
2017-Sep-14 15:58N 40°38' W 074°08'0 0.0
2017-Sep-14 15:28N 40°38' W 074°08'0 0.0
2017-Sep-14 14:58N 40°38' W 074°08'0 0.0
2017-Sep-14 14:28N 40°38' W 074°08'0 0.0
2017-Sep-14 13:58N 40°38' W 074°08'0 0.0
2017-Sep-14 13:25N 40°38' W 074°08'0 0.0
2017-Sep-14 12:58N 40°38' W 074°08'0 0.0
2017-Sep-14 12:28N 40°38' W 074°08'0 0.0
2017-Sep-14 11:55N 40°38' W 074°08'0 0.0
2017-Sep-14 11:25N 40°38' W 074°08'0 0.0
2017-Sep-14 10:58N 40°38' W 074°08'0 0.0
2017-Sep-14 10:28N 40°38' W 074°08'0 0.0
2017-Sep-14 09:58N 40°38' W 074°08'0 0.0
2017-Sep-14 09:28N 40°38' W 074°08'0 0.0
2017-Sep-14 08:55N 40°38' W 074°08'0 0.0
2017-Sep-14 08:28N 40°38' W 074°08'0 0.0
2017-Sep-14 07:49N 40°38' W 074°08'0 0.0
2017-Sep-14 07:19N 40°38' W 074°08'0 0.0
2017-Sep-14 06:58N 40°38' W 074°08'0 0.0
2017-Sep-14 06:19N 40°38' W 074°08'0 0.0
2017-Sep-14 05:55N 40°38' W 074°08'0 0.0
2017-Sep-14 05:25N 40°38' W 074°08'0 0.0
2017-Sep-14 04:55N 40°38' W 074°08'0 0.0
2017-Sep-14 04:25N 40°38' W 074°08'0 0.0
2017-Sep-14 04:00N 40°38' W 074°08'0 0.0
2017-Sep-14 03:30N 40°38' W 074°08'0 0.0
2017-Sep-14 03:00N 40°38' W 074°08'0 0.0
2017-Sep-14 02:30N 40°38' W 074°08'0 0.0
2017-Sep-14 02:00N 40°38' W 074°08'0 0.0
2017-Sep-14 01:31N 40°38' W 074°08'0 0.0
2017-Sep-14 01:00N 40°38' W 074°08'0 0.0
2017-Sep-14 00:30N 40°38' W 074°08'0 0.0
2017-Sep-14 00:00N 40°38' W 074°08'0 0.0
2017-Sep-13 23:30N 40°38' W 074°08'0 0.0
2017-Sep-13 22:59N 40°38' W 074°08'0 0.0
2017-Sep-13 22:30N 40°38' W 074°08'0 0.0
2017-Sep-13 22:00N 40°38' W 074°08'0 0.0
2017-Sep-13 21:22N 40°38' W 074°08'2 6.7
2017-Sep-13 21:00N 40°39' W 074°11'3 4.9
2017-Sep-13 20:30N 40°36' W 074°12'0 0.1
2017-Sep-13 20:00N 40°36' W 074°12'4 2.3
2017-Sep-13 18:08N 40°33' W 074°15'4 8.8
2017-Sep-13 17:39N 40°36' W 074°12'210.3
2017-Sep-13 17:29N 40°38' W 074°12'4 8.9
2017-Sep-13 17:00N 40°39' W 074°06'1 2.1
2017-Sep-13 16:30N 40°38' W 074°08'0 0.0
2017-Sep-13 15:59N 40°38' W 074°08'1 1.7
2017-Sep-13 15:30N 40°39' W 074°07'2 4.8
2017-Sep-13 15:00N 40°39' W 074°04'3 6.4
2017-Sep-13 14:30N 40°38' W 074°08'1 2.0
2017-Sep-13 14:00N 40°39' W 074°09'3 6.4
2017-Sep-13 13:30N 40°36' W 074°12'0 0.0
2017-Sep-13 13:01N 40°36' W 074°12'0 0.4
2017-Sep-13 12:30N 40°37' W 074°12'3 6.6
2017-Sep-13 12:00N 40°39' W 074°09'1 2.5
2017-Sep-13 11:30N 40°39' W 074°07'1 1.2
2017-Sep-13 11:00N 40°38' W 074°08'0 0.0
2017-Sep-13 10:30N 40°39' W 074°08'5 9.6
2017-Sep-13 10:00N 40°41' W 074°02'611.9
2017-Sep-13 09:30N 40°47' W 073°60'611.1
2017-Sep-13 09:00N 40°52' W 073°57'4 6.7
2017-Sep-13 08:20N 40°56' W 073°54'0 0.0
2017-Sep-13 07:52N 40°56' W 073°54'0 0.5
2017-Sep-13 07:29N 40°56' W 073°55'1 2.7
2017-Sep-13 07:00N 40°55' W 073°55'1 1.2
2017-Sep-13 05:56N 40°56' W 073°54'4 9.6
2017-Sep-13 05:30N 40°52' W 073°57'611.8
2017-Sep-13 05:00N 40°47' W 073°60'611.6
2017-Sep-13 04:30N 40°41' W 074°02'5 9.6
2017-Sep-13 04:00N 40°39' W 074°08'0 0.3
2017-Sep-13 03:28N 40°38' W 074°08'0 0.0
2017-Sep-13 02:58N 40°38' W 074°08'0 0.0
2017-Sep-13 02:28N 40°38' W 074°08'0 0.0
2017-Sep-13 01:58N 40°38' W 074°08'0 0.0
2017-Sep-13 01:28N 40°38' W 074°08'0 0.0
2017-Sep-13 00:58N 40°38' W 074°08'0 0.0
2017-Sep-13 00:28N 40°38' W 074°08'0 0.0
2017-Sep-12 23:28N 40°38' W 074°08'0 0.0
2017-Sep-12 22:55N 40°38' W 074°08'0 0.0
2017-Sep-12 22:25N 40°38' W 074°08'0 0.0
2017-Sep-12 21:58N 40°38' W 074°08'0 0.0
2017-Sep-12 21:19N 40°38' W 074°08'0 0.0
2017-Sep-12 20:59N 40°38' W 074°08'0 0.0
2017-Sep-12 20:30N 40°38' W 074°08'2 3.9
2017-Sep-12 20:00N 40°39' W 074°05'510.3
2017-Sep-12 19:30N 40°42' W 073°60'5 9.5
2017-Sep-12 19:00N 40°46' W 073°57'4 7.2
2017-Sep-12 18:29N 40°48' W 073°52'3 6.3
2017-Sep-12 17:57N 40°48' W 073°48'0 0.3
2017-Sep-12 17:28N 40°48' W 073°48'0 0.2
2017-Sep-12 17:00N 40°48' W 073°48'2 4.7
2017-Sep-12 16:30N 40°48' W 073°51'4 8.8
2017-Sep-12 16:00N 40°47' W 073°56'510.5
2017-Sep-12 15:31N 40°42' W 073°60'510.4
2017-Sep-12 15:01N 40°39' W 074°05'2 3.9
2017-Sep-12 14:30N 40°38' W 074°08'0 0.0
2017-Sep-12 13:51N 40°38' W 074°08'0 0.0
2017-Sep-12 13:21N 40°38' W 074°08'0 0.0
2017-Sep-12 13:00N 40°38' W 074°08'0 0.0
2017-Sep-12 12:31N 40°38' W 074°08'0 0.0
2017-Sep-12 11:57N 40°38' W 074°08'0 0.0
2017-Sep-12 11:27N 40°38' W 074°08'0 0.0
2017-Sep-12 10:45N 40°38' W 074°08'0 0.0
2017-Sep-12 10:30N 40°38' W 074°08'0 0.0
2017-Sep-12 09:45N 40°38' W 074°08'0 0.0
2017-Sep-12 09:27N 40°38' W 074°08'0 0.0
2017-Sep-12 08:57N 40°38' W 074°08'0 0.0
2017-Sep-12 08:21N 40°38' W 074°08'0 0.0
2017-Sep-12 08:00N 40°38' W 074°08'0 0.0
2017-Sep-12 07:06N 40°38' W 074°08'0 0.0
2017-Sep-12 06:54N 40°38' W 074°08'0 0.0
2017-Sep-12 06:27N 40°38' W 074°08'0 0.0
2017-Sep-12 05:57N 40°38' W 074°08'0 0.0
2017-Sep-12 05:27N 40°38' W 074°08'0 0.0
2017-Sep-12 05:00N 40°38' W 074°08'0 0.0
2017-Sep-12 04:30N 40°38' W 074°08'0 0.0
2017-Sep-12 04:00N 40°38' W 074°08'0 0.0
2017-Sep-12 03:30N 40°38' W 074°08'0 0.0
2017-Sep-12 03:00N 40°38' W 074°08'0 0.0
2017-Sep-12 02:29N 40°38' W 074°08'0 0.0
2017-Sep-12 02:01N 40°38' W 074°08'  
Track history (hours):
 
Tides and Currents Weather Stations Pressure Air Temp Water Temp Dewpoint Dewpoint Depression Visibility Wind Speed Wind Dir Waves Ship Positions

James Turecamo

Owner: Moran Towing Corporation, New Canaan, CT. More information available from US FCC via Universal Licensing System and Coast Guard Vessel Documentation Center.

Last reported at 2017-Sep-22 01:59 UTC. Time now 2017-Sep-22 06:31 UTC.
Position N 40°38' W 074°08'.

Length 30 m; draft 3.9 m.

Type: Tug. MMSI: 367073380.

Date/timePositionNaut miles runAvg speedWind from/ knotsBaromVisibWave heightAir tempDewpointWater temp
2017-Sep-22 01:59N 40°38' W 074°08'0 0.0
2017-Sep-22 01:23N 40°38' W 074°08'0 0.0
2017-Sep-22 00:53N 40°38' W 074°08'0 0.0
2017-Sep-22 00:29N 40°38' W 074°08'0 0.0
2017-Sep-21 23:56N 40°38' W 074°08'0 0.0
2017-Sep-21 23:26N 40°38' W 074°08'0 0.0
2017-Sep-21 22:56N 40°38' W 074°08'0 0.0
2017-Sep-21 21:47N 40°38' W 074°08'0 0.0
2017-Sep-21 21:17N 40°38' W 074°08'0 0.0
2017-Sep-21 21:01N 40°38' W 074°08'1 1.3
2017-Sep-21 20:31N 40°39' W 074°07'1 1.3
2017-Sep-21 19:59N 40°38' W 074°08'0 0.0
2017-Sep-21 19:20N 40°38' W 074°08'0 0.0
2017-Sep-21 18:55N 40°38' W 074°08'0 0.0
2017-Sep-21 18:30N 40°38' W 074°08'0 0.0
2017-Sep-21 18:00N 40°38' W 074°08'0 0.0
2017-Sep-21 17:30N 40°38' W 074°08'0 0.0
2017-Sep-21 17:00N 40°38' W 074°08'0 0.0
2017-Sep-21 16:30N 40°38' W 074°08'0 0.0
2017-Sep-21 16:00N 40°38' W 074°08'2 4.5
2017-Sep-21 15:31N 40°39' W 074°05'4 7.9
2017-Sep-21 15:01N 40°42' W 074°02'5 9.9
2017-Sep-21 14:30N 40°47' W 073°60'3 6.6
2017-Sep-21 14:00N 40°50' W 073°58'511.0
2017-Sep-21 13:31N 40°45' W 074°01'612.0
2017-Sep-21 13:00N 40°40' W 074°04'3 6.0
2017-Sep-21 12:30N 40°38' W 074°08'0 0.0
2017-Sep-21 12:00N 40°38' W 074°08'0 0.0
2017-Sep-21 11:24N 40°38' W 074°08'0 0.0
2017-Sep-21 11:00N 40°38' W 074°08'0 0.0
2017-Sep-21 10:30N 40°38' W 074°08'0 0.0
2017-Sep-21 10:00N 40°38' W 074°08'0 0.0
2017-Sep-21 09:21N 40°38' W 074°08'0 0.0
2017-Sep-21 09:00N 40°38' W 074°08'0 0.0
2017-Sep-21 08:27N 40°38' W 074°08'0 0.0
2017-Sep-21 07:57N 40°38' W 074°08'0 0.0
2017-Sep-21 07:27N 40°38' W 074°08'0 0.0
2017-Sep-21 06:57N 40°38' W 074°08'0 0.0
2017-Sep-21 06:27N 40°38' W 074°08'0 0.0
2017-Sep-21 06:00N 40°38' W 074°08'0 0.0
2017-Sep-21 05:27N 40°38' W 074°08'0 0.0
2017-Sep-21 04:57N 40°38' W 074°08'0 0.0
2017-Sep-21 04:30N 40°38' W 074°08'0 0.0
2017-Sep-21 03:57N 40°38' W 074°08'0 0.0
2017-Sep-21 03:27N 40°38' W 074°08'0 0.0
2017-Sep-21 02:57N 40°38' W 074°08'0 0.0
2017-Sep-21 02:27N 40°38' W 074°08'0 0.0
2017-Sep-21 01:57N 40°38' W 074°08'0 0.0
2017-Sep-21 01:27N 40°38' W 074°08'0 0.0
2017-Sep-21 00:45N 40°38' W 074°08'0 0.0
2017-Sep-21 00:30N 40°38' W 074°08'0 0.0
2017-Sep-20 23:57N 40°38' W 074°08'0 0.0
2017-Sep-20 23:27N 40°38' W 074°08'0 0.0
2017-Sep-20 22:57N 40°38' W 074°08'0 0.0
2017-Sep-20 22:30N 40°38' W 074°08'0 0.0
2017-Sep-20 21:57N 40°38' W 074°08'0 0.0
2017-Sep-20 21:30N 40°38' W 074°08'0 0.0
2017-Sep-20 20:57N 40°38' W 074°08'0 0.0
2017-Sep-20 20:27N 40°38' W 074°08'0 0.0
2017-Sep-20 20:00N 40°38' W 074°08'0 0.0
2017-Sep-20 19:30N 40°38' W 074°08'0 0.0
2017-Sep-20 18:54N 40°38' W 074°08'0 0.0
2017-Sep-20 18:30N 40°38' W 074°08'0 0.0
2017-Sep-20 18:00N 40°38' W 074°08'0 0.9
2017-Sep-20 17:30N 40°39' W 074°08'4 6.8
2017-Sep-20 16:58N 40°36' W 074°12'0 0.0
2017-Sep-20 16:25N 40°36' W 074°12'1 1.3
2017-Sep-20 16:00N 40°37' W 074°12'4 2.6
2017-Sep-20 14:37N 40°38' W 074°08'0 0.0
2017-Sep-20 13:46N 40°38' W 074°08'0 0.0
2017-Sep-20 13:28N 40°38' W 074°08'0 0.0
2017-Sep-20 12:59N 40°38' W 074°08'0 0.9
2017-Sep-20 12:30N 40°39' W 074°07'1 1.8
2017-Sep-20 12:01N 40°39' W 074°06'1 2.5
2017-Sep-20 11:29N 40°38' W 074°08'0 0.0
2017-Sep-20 10:58N 40°38' W 074°08'0 0.0
2017-Sep-20 10:28N 40°38' W 074°08'0 0.0
2017-Sep-20 09:52N 40°38' W 074°08'0 0.0
2017-Sep-20 09:28N 40°38' W 074°08'0 0.0
2017-Sep-20 08:58N 40°38' W 074°08'0 0.0
2017-Sep-20 08:28N 40°38' W 074°08'0 0.0
2017-Sep-20 06:43N 40°38' W 074°08'0 0.0
2017-Sep-20 06:19N 40°38' W 074°08'0 0.0
2017-Sep-20 05:37N 40°38' W 074°08'0 0.0
2017-Sep-20 05:25N 40°38' W 074°08'0 0.0
2017-Sep-20 05:00N 40°38' W 074°08'0 0.0
2017-Sep-20 04:29N 40°38' W 074°08'0 0.0
2017-Sep-20 03:59N 40°38' W 074°08'0 0.0
2017-Sep-20 03:30N 40°38' W 074°08'0 0.0
2017-Sep-20 03:00N 40°38' W 074°08'0 0.0
2017-Sep-20 02:30N 40°38' W 074°08'1 2.9
2017-Sep-20 02:00N 40°40' W 074°09'0 0.3
2017-Sep-20 01:30N 40°40' W 074°09'0 0.0
2017-Sep-20 01:00N 40°40' W 074°09'1 2.8
2017-Sep-20 00:31N 40°39' W 074°08'0 0.1
2017-Sep-19 23:51N 40°38' W 074°08'0 0.0
2017-Sep-19 23:27N 40°38' W 074°08'0 0.0
2017-Sep-19 23:00N 40°38' W 074°08'1 1.4
2017-Sep-19 22:31N 40°38' W 074°09'3 5.5
2017-Sep-19 22:00N 40°41' W 074°08'1 1.4
2017-Sep-19 21:29N 40°42' W 074°09'1 3.0
2017-Sep-19 21:00N 40°40' W 074°08'2 3.6
2017-Sep-19 20:28N 40°38' W 074°08'0 0.0
2017-Sep-19 19:58N 40°38' W 074°08'0 1.0
2017-Sep-19 19:30N 40°39' W 074°07'1 1.2
2017-Sep-19 18:42N 40°39' W 074°06'1 4.2
2017-Sep-19 18:31N 40°39' W 074°05'2 3.0
2017-Sep-19 17:59N 40°39' W 074°03'0 0.1
2017-Sep-19 17:26N 40°39' W 074°03'0 0.2
2017-Sep-19 16:59N 40°39' W 074°03'2 3.5
2017-Sep-19 16:30N 40°39' W 074°05'2 2.4
2017-Sep-19 15:38N 40°38' W 074°08'0 0.0
2017-Sep-19 15:14N 40°38' W 074°08'0 0.0
2017-Sep-19 14:59N 40°38' W 074°08'0 0.0
2017-Sep-19 14:29N 40°38' W 074°08'0 0.0
2017-Sep-19 13:59N 40°38' W 074°08'0 0.0
2017-Sep-19 13:30N 40°38' W 074°08'0 0.0
2017-Sep-19 12:59N 40°38' W 074°08'1 2.8
2017-Sep-19 12:30N 40°39' W 074°06'2 4.9
2017-Sep-19 12:00N 40°39' W 074°03'1 2.2
2017-Sep-19 11:30N 40°38' W 074°03'4 7.0
2017-Sep-19 11:00N 40°39' W 074°08'0 0.3
2017-Sep-19 10:28N 40°38' W 074°08'0 0.0
2017-Sep-19 09:28N 40°38' W 074°08'0 0.0
2017-Sep-19 08:40N 40°38' W 074°08'0 0.0
2017-Sep-19 08:28N 40°38' W 074°08'0 0.0
2017-Sep-19 07:58N 40°38' W 074°08'0 0.0
2017-Sep-19 07:28N 40°38' W 074°08'0 0.0
2017-Sep-19 07:00N 40°38' W 074°08'0 0.0
2017-Sep-19 06:30N 40°38' W 074°08'0 0.0
2017-Sep-19 06:00N 40°38' W 074°08'0 0.0
2017-Sep-19 05:30N 40°38' W 074°08'0 0.0
2017-Sep-19 05:00N 40°38' W 074°08'0 0.0
2017-Sep-19 04:30N 40°38' W 074°08'0 0.0
2017-Sep-19 04:00N 40°38' W 074°08'1 3.0
2017-Sep-19 03:30N 40°39' W 074°06'510.7
2017-Sep-19 03:00N 40°43' W 074°01'511.0
2017-Sep-19 02:30N 40°48' W 073°59'510.5
2017-Sep-19 02:00N 40°53' W 073°56'3 4.5
2017-Sep-19 01:20N 40°56' W 073°54'0 0.1
2017-Sep-19 00:59N 40°56' W 073°54'0 0.0
2017-Sep-18 23:11N 40°56' W 073°54'312.4
2017-Sep-18 22:58N 40°53' W 073°56'613.2
2017-Sep-18 22:30N 40°48' W 073°59'612.6
2017-Sep-18 22:00N 40°42' W 074°02'510.1
2017-Sep-18 21:30N 40°39' W 074°07'2 3.0
2017-Sep-18 21:00N 40°40' W 074°08'2 3.3
2017-Sep-18 20:30N 40°41' W 074°08'0 0.1
2017-Sep-18 20:00N 40°41' W 074°08'3 5.6
2017-Sep-18 19:31N 40°39' W 074°09'1 1.1
2017-Sep-18 18:38N 40°38' W 074°08'0 0.0
2017-Sep-18 18:14N 40°38' W 074°08'0 0.0
2017-Sep-18 17:48N 40°38' W 074°08'2 5.9
2017-Sep-18 17:30N 40°39' W 074°06'1 1.0
2017-Sep-18 16:59N 40°39' W 074°05'2 4.6
2017-Sep-18 16:30N 40°38' W 074°08'0 0.1
2017-Sep-18 15:53N 40°38' W 074°08'0 0.0
2017-Sep-18 15:29N 40°38' W 074°08'0 0.0
2017-Sep-18 12:47N 40°38' W 074°08'0 0.0
2017-Sep-18 12:29N 40°38' W 074°08'0 0.0
2017-Sep-18 11:23N 40°38' W 074°08'0 0.0
2017-Sep-18 10:59N 40°38' W 074°08'0 0.0
2017-Sep-18 09:26N 40°38' W 074°08'0 0.0
2017-Sep-18 08:38N 40°38' W 074°08'0 0.0
2017-Sep-18 06:12N 40°38' W 074°08'0 0.0
2017-Sep-18 05:59N 40°38' W 074°08'0 0.0
2017-Sep-18 05:22N 40°38' W 074°08'0 0.0
2017-Sep-18 04:27N 40°38' W 074°08'0 0.0
2017-Sep-18 03:55N 40°38' W 074°08'0 0.0
2017-Sep-18 03:30N 40°38' W 074°08'0 0.0
2017-Sep-18 03:01N 40°38' W 074°08'0 0.1
2017-Sep-18 02:29N 40°38' W 074°08'4 7.6
2017-Sep-18 02:01N 40°41' W 074°04'0 0.1
2017-Sep-18 01:31N 40°41' W 074°04'0 0.2
2017-Sep-18 01:01N 40°41' W 074°04'2 4.0
2017-Sep-18 00:30N 40°39' W 074°03'2 3.1
2017-Sep-18 00:01N 40°39' W 074°05'2 3.4
2017-Sep-17 23:25N 40°38' W 074°08'0 0.0
2017-Sep-17 23:01N 40°38' W 074°08'0 0.0
2017-Sep-17 22:25N 40°38' W 074°08'0 0.0
2017-Sep-17 21:54N 40°38' W 074°08'0 0.0
2017-Sep-17 20:00N 40°38' W 074°08'0 0.0
2017-Sep-17 19:24N 40°38' W 074°08'0 0.0
2017-Sep-17 19:00N 40°38' W 074°08'0 0.0
2017-Sep-17 18:30N 40°38' W 074°08'0 0.0
2017-Sep-17 18:00N 40°38' W 074°08'0 0.0
2017-Sep-17 17:27N 40°38' W 074°08'0 0.0
2017-Sep-17 16:57N 40°38' W 074°08'0 0.0
2017-Sep-17 16:15N 40°38' W 074°08'0 0.0
2017-Sep-17 15:58N 40°38' W 074°08'0 0.0
2017-Sep-17 15:30N 40°38' W 074°08'0 0.0
2017-Sep-17 14:57N 40°38' W 074°08'0 0.0
2017-Sep-17 14:30N 40°38' W 074°08'0 0.0
2017-Sep-17 13:54N 40°38' W 074°08'0 0.0
2017-Sep-17 13:27N 40°38' W 074°08'0 0.0
2017-Sep-17 12:57N 40°38' W 074°08'0 0.0
2017-Sep-17 12:30N 40°38' W 074°08'0 0.0
2017-Sep-17 11:57N 40°38' W 074°08'0 0.0
2017-Sep-17 11:24N 40°38' W 074°08'0 0.0
2017-Sep-17 11:00N 40°38' W 074°08'0 0.0
2017-Sep-17 10:30N 40°38' W 074°08'0 0.0
2017-Sep-17 09:54N 40°38' W 074°08'0 0.0
2017-Sep-17 09:30N 40°38' W 074°08'0 0.0
2017-Sep-17 09:00N 40°38' W 074°08'0 0.0
2017-Sep-17 08:30N 40°38' W 074°08'0 0.0
2017-Sep-17 08:00N 40°38' W 074°08'0 0.0
2017-Sep-17 07:30N 40°38' W 074°08'0 0.0
2017-Sep-17 07:00N 40°38' W 074°08'0 0.0
2017-Sep-17 06:30N 40°38' W 074°08'0 0.0
2017-Sep-17 06:00N 40°38' W 074°08'0 0.0
2017-Sep-17 05:30N 40°38' W 074°08'0 0.0
2017-Sep-17 05:00N 40°38' W 074°08'0 0.0
2017-Sep-17 04:30N 40°38' W 074°08'0 0.0
2017-Sep-17 04:00N 40°38' W 074°08'0 0.0
2017-Sep-17 03:30N 40°38' W 074°08'0 0.0
2017-Sep-17 03:00N 40°38' W 074°08'0 0.0
2017-Sep-17 02:30N 40°38' W 074°08'0 0.0
2017-Sep-17 02:00N 40°38' W 074°08'0 0.0
2017-Sep-17 01:30N 40°38' W 074°08'0 0.0
2017-Sep-17 01:00N 40°38' W 074°08'0 0.0
2017-Sep-17 00:30N 40°38' W 074°08'0 0.0
2017-Sep-17 00:00N 40°38' W 074°08'2 3.7
2017-Sep-16 23:30N 40°39' W 074°10'7 9.6
2017-Sep-16 22:45N 40°33' W 074°15'0 0.5
2017-Sep-16 22:18N 40°32' W 074°15'2 1.3
2017-Sep-16 20:57N 40°33' W 074°13'4 9.5
2017-Sep-16 20:29N 40°38' W 074°12'3 7.1
2017-Sep-16 20:00N 40°38' W 074°08'0 0.0
2017-Sep-16 19:30N 40°38' W 074°08'0 0.0
2017-Sep-16 19:00N 40°38' W 074°08'0 0.0
2017-Sep-16 18:30N 40°38' W 074°08'0 0.0
2017-Sep-16 18:00N 40°38' W 074°08'0 0.0
2017-Sep-16 17:30N 40°38' W 074°08'0 0.0
2017-Sep-16 17:00N 40°38' W 074°08'0 0.0
2017-Sep-16 16:30N 40°38' W 074°08'0 0.0
2017-Sep-16 16:00N 40°38' W 074°08'0 0.0
2017-Sep-16 15:30N 40°38' W 074°08'0 0.0
2017-Sep-16 15:00N 40°38' W 074°08'0 0.0
2017-Sep-16 14:30N 40°38' W 074°08'0 0.0
2017-Sep-16 14:00N 40°38' W 074°08'0 0.0
2017-Sep-16 13:30N 40°38' W 074°08'0 0.0
2017-Sep-16 13:00N 40°38' W 074°08'0 0.0
2017-Sep-16 12:30N 40°38' W 074°08'1 1.9
2017-Sep-16 12:01N 40°39' W 074°09'3 4.5
2017-Sep-16 11:26N 40°38' W 074°12'0 0.4
2017-Sep-16 11:00N 40°38' W 074°12'2 4.3
2017-Sep-16 10:30N 40°39' W 074°10'2 3.1
2017-Sep-16 10:00N 40°38' W 074°08'0 0.0
2017-Sep-16 09:30N 40°38' W 074°08'0 0.0
2017-Sep-16 09:00N 40°38' W 074°08'0 0.0
2017-Sep-16 08:30N 40°38' W 074°08'0 0.0
2017-Sep-16 08:00N 40°38' W 074°08'0 0.4
2017-Sep-16 07:31N 40°39' W 074°08'4 8.1
2017-Sep-16 07:00N 40°36' W 074°12'1 1.3
2017-Sep-16 06:30N 40°35' W 074°12'2 0.7
2017-Sep-16 03:10N 40°33' W 074°14'2 9.5
2017-Sep-16 02:57N 40°35' W 074°13'0 0.1
2017-Sep-16 02:30N 40°35' W 074°13'0 0.0
2017-Sep-16 02:00N 40°35' W 074°13'0 0.6
2017-Sep-16 01:29N 40°35' W 074°13'2 0.3
2017-Sep-15 20:20N 40°33' W 074°14'3 8.8
2017-Sep-15 19:59N 40°36' W 074°12'4 7.6
2017-Sep-15 19:30N 40°39' W 074°09'1 1.0
2017-Sep-15 18:55N 40°38' W 074°08'0 0.0
2017-Sep-15 18:28N 40°38' W 074°08'0 0.0
2017-Sep-15 17:58N 40°38' W 074°08'0 0.0
2017-Sep-15 17:22N 40°38' W 074°08'0 0.0
2017-Sep-15 16:55N 40°38' W 074°08'0 0.0
2017-Sep-15 16:01N 40°38' W 074°08'0 0.0
2017-Sep-15 15:52N 40°38' W 074°08'0 0.0
2017-Sep-15 15:28N 40°38' W 074°08'0 0.0
2017-Sep-15 14:43N 40°38' W 074°08'0 0.0
2017-Sep-15 14:22N 40°38' W 074°08'0 0.0
2017-Sep-15 13:49N 40°38' W 074°08'0 0.0
2017-Sep-15 13:28N 40°38' W 074°08'1 2.9
2017-Sep-15 12:59N 40°39' W 074°06'0 0.1
2017-Sep-15 12:29N 40°39' W 074°06'2 4.1
2017-Sep-15 12:01N 40°39' W 074°03'2 3.7
2017-Sep-15 11:31N 40°39' W 074°06'2 2.3
2017-Sep-15 10:51N 40°38' W 074°08'0 0.0
2017-Sep-15 10:27N 40°38' W 074°08'0 0.0
2017-Sep-15 09:51N 40°38' W 074°08'0 0.0
2017-Sep-15 09:30N 40°38' W 074°08'0 0.0
2017-Sep-15 08:57N 40°38' W 074°08'0 0.0
2017-Sep-15 08:27N 40°38' W 074°08'0 0.0
2017-Sep-15 08:00N 40°38' W 074°08'0 0.0
2017-Sep-15 07:30N 40°38' W 074°08'0 0.0
2017-Sep-15 07:00N 40°38' W 074°08'0 0.0
2017-Sep-15 06:31N 40°38' W 074°08'0 0.8
2017-Sep-15 06:00N 40°39' W 074°08'3 6.2
2017-Sep-15 05:31N 40°38' W 074°12'0 0.7
2017-Sep-15 05:00N 40°38' W 074°12'3 6.4
2017-Sep-15 04:31N 40°39' W 074°08'0 0.2
2017-Sep-15 04:00N 40°38' W 074°08'0 0.0
2017-Sep-15 03:30N 40°38' W 074°08'0 0.0
2017-Sep-15 03:00N 40°38' W 074°08'0 0.0
2017-Sep-15 02:31N 40°38' W 074°08'0 0.1
2017-Sep-15 02:00N 40°38' W 074°08'4 7.1
2017-Sep-15 01:30N 40°37' W 074°03'1 2.6
2017-Sep-15 01:01N 40°38' W 074°04'3 5.8
2017-Sep-15 00:31N 40°38' W 074°08'0 0.0
2017-Sep-15 00:00N 40°38' W 074°08'0 0.0
2017-Sep-14 23:30N 40°38' W 074°08'0 0.0
2017-Sep-14 23:01N 40°38' W 074°08'0 0.0
2017-Sep-14 22:30N 40°38' W 074°08'0 0.0
2017-Sep-14 22:00N 40°38' W 074°08'3 6.0
2017-Sep-14 21:30N 40°38' W 074°12'1 1.6
2017-Sep-14 21:00N 40°38' W 074°12'2 4.0
2017-Sep-14 20:30N 40°39' W 074°10'3 5.3
2017-Sep-14 20:00N 40°39' W 074°07'1 2.7
2017-Sep-14 19:31N 40°39' W 074°05'2 4.3
2017-Sep-14 19:01N 40°39' W 074°08'0 0.1
2017-Sep-14 18:30N 40°38' W 074°08'0 0.0
2017-Sep-14 18:00N 40°38' W 074°08'0 0.0
2017-Sep-14 17:24N 40°38' W 074°08'3 6.9
2017-Sep-14 17:00N 40°39' W 074°04'1 2.2
2017-Sep-14 16:30N 40°39' W 074°06'2 3.0
2017-Sep-14 15:58N 40°38' W 074°08'0 0.0
2017-Sep-14 15:28N 40°38' W 074°08'0 0.0
2017-Sep-14 14:58N 40°38' W 074°08'0 0.0
2017-Sep-14 14:28N 40°38' W 074°08'0 0.0
2017-Sep-14 13:58N 40°38' W 074°08'0 0.0
2017-Sep-14 13:25N 40°38' W 074°08'0 0.0
2017-Sep-14 12:58N 40°38' W 074°08'0 0.0
2017-Sep-14 12:28N 40°38' W 074°08'0 0.0
2017-Sep-14 11:55N 40°38' W 074°08'0 0.0
2017-Sep-14 11:25N 40°38' W 074°08'0 0.0
2017-Sep-14 10:58N 40°38' W 074°08'0 0.0
2017-Sep-14 10:28N 40°38' W 074°08'0 0.0
2017-Sep-14 09:58N 40°38' W 074°08'0 0.0
2017-Sep-14 09:28N 40°38' W 074°08'0 0.0
2017-Sep-14 08:55N 40°38' W 074°08'0 0.0
2017-Sep-14 08:28N 40°38' W 074°08'0 0.0
2017-Sep-14 07:49N 40°38' W 074°08'0 0.0
2017-Sep-14 07:19N 40°38' W 074°08'0 0.0
2017-Sep-14 06:58N 40°38' W 074°08'0 0.0
2017-Sep-14 06:19N 40°38' W 074°08'0 0.0
2017-Sep-14 05:55N 40°38' W 074°08'0 0.0
2017-Sep-14 05:25N 40°38' W 074°08'0 0.0
2017-Sep-14 04:55N 40°38' W 074°08'0 0.0
2017-Sep-14 04:25N 40°38' W 074°08'0 0.0
2017-Sep-14 04:00N 40°38' W 074°08'0 0.0
2017-Sep-14 03:30N 40°38' W 074°08'0 0.0
2017-Sep-14 03:00N 40°38' W 074°08'0 0.0
2017-Sep-14 02:30N 40°38' W 074°08'0 0.0
2017-Sep-14 02:00N 40°38' W 074°08'0 0.0
2017-Sep-14 01:31N 40°38' W 074°08'0 0.0
2017-Sep-14 01:00N 40°38' W 074°08'0 0.0
2017-Sep-14 00:30N 40°38' W 074°08'0 0.0
2017-Sep-14 00:00N 40°38' W 074°08'0 0.0
2017-Sep-13 23:30N 40°38' W 074°08'0 0.0
2017-Sep-13 22:59N 40°38' W 074°08'0 0.0
2017-Sep-13 22:30N 40°38' W 074°08'0 0.0
2017-Sep-13 22:00N 40°38' W 074°08'0 0.0
2017-Sep-13 21:22N 40°38' W 074°08'2 6.7
2017-Sep-13 21:00N 40°39' W 074°11'3 4.9
2017-Sep-13 20:30N 40°36' W 074°12'0 0.1
2017-Sep-13 20:00N 40°36' W 074°12'4 2.3
2017-Sep-13 18:08N 40°33' W 074°15'4 8.8
2017-Sep-13 17:39N 40°36' W 074°12'210.3
2017-Sep-13 17:29N 40°38' W 074°12'4 8.9
2017-Sep-13 17:00N 40°39' W 074°06'1 2.1
2017-Sep-13 16:30N 40°38' W 074°08'0 0.0
2017-Sep-13 15:59N 40°38' W 074°08'1 1.7
2017-Sep-13 15:30N 40°39' W 074°07'2 4.8
2017-Sep-13 15:00N 40°39' W 074°04'3 6.4
2017-Sep-13 14:30N 40°38' W 074°08'1 2.0
2017-Sep-13 14:00N 40°39' W 074°09'3 6.4
2017-Sep-13 13:30N 40°36' W 074°12'0 0.0
2017-Sep-13 13:01N 40°36' W 074°12'0 0.4
2017-Sep-13 12:30N 40°37' W 074°12'3 6.6
2017-Sep-13 12:00N 40°39' W 074°09'1 2.5
2017-Sep-13 11:30N 40°39' W 074°07'1 1.2
2017-Sep-13 11:00N 40°38' W 074°08'0 0.0
2017-Sep-13 10:30N 40°39' W 074°08'5 9.6
2017-Sep-13 10:00N 40°41' W 074°02'611.9
2017-Sep-13 09:30N 40°47' W 073°60'611.1
2017-Sep-13 09:00N 40°52' W 073°57'4 6.7
2017-Sep-13 08:20N 40°56' W 073°54'0 0.0
2017-Sep-13 07:52N 40°56' W 073°54'0 0.5
2017-Sep-13 07:29N 40°56' W 073°55'1 2.7
2017-Sep-13 07:00N 40°55' W 073°55'1 1.2
2017-Sep-13 05:56N 40°56' W 073°54'4 9.6
2017-Sep-13 05:30N 40°52' W 073°57'611.8
2017-Sep-13 05:00N 40°47' W 073°60'611.6
2017-Sep-13 04:30N 40°41' W 074°02'5 9.6
2017-Sep-13 04:00N 40°39' W 074°08'0 0.3
2017-Sep-13 03:28N 40°38' W 074°08'0 0.0
2017-Sep-13 02:58N 40°38' W 074°08'0 0.0
2017-Sep-13 02:28N 40°38' W 074°08'0 0.0
2017-Sep-13 01:58N 40°38' W 074°08'0 0.0
2017-Sep-13 01:28N 40°38' W 074°08'0 0.0
2017-Sep-13 00:58N 40°38' W 074°08'0 0.0
2017-Sep-13 00:28N 40°38' W 074°08'0 0.0
2017-Sep-12 23:28N 40°38' W 074°08'0 0.0
2017-Sep-12 22:55N 40°38' W 074°08'0 0.0
2017-Sep-12 22:25N 40°38' W 074°08'0 0.0
2017-Sep-12 21:58N 40°38' W 074°08'0 0.0
2017-Sep-12 21:19N 40°38' W 074°08'0 0.0
2017-Sep-12 20:59N 40°38' W 074°08'0 0.0
2017-Sep-12 20:30N 40°38' W 074°08'2 3.9
2017-Sep-12 20:00N 40°39' W 074°05'510.3
2017-Sep-12 19:30N 40°42' W 073°60'5 9.5
2017-Sep-12 19:00N 40°46' W 073°57'4 7.2
2017-Sep-12 18:29N 40°48' W 073°52'3 6.3
2017-Sep-12 17:57N 40°48' W 073°48'0 0.3
2017-Sep-12 17:28N 40°48' W 073°48'0 0.2
2017-Sep-12 17:00N 40°48' W 073°48'2 4.7
2017-Sep-12 16:30N 40°48' W 073°51'4 8.8
2017-Sep-12 16:00N 40°47' W 073°56'510.5
2017-Sep-12 15:31N 40°42' W 073°60'510.4
2017-Sep-12 15:01N 40°39' W 074°05'2 3.9
2017-Sep-12 14:30N 40°38' W 074°08'0 0.0
2017-Sep-12 13:51N 40°38' W 074°08'0 0.0
2017-Sep-12 13:21N 40°38' W 074°08'0 0.0
2017-Sep-12 13:00N 40°38' W 074°08'0 0.0
2017-Sep-12 12:31N 40°38' W 074°08'0 0.0
2017-Sep-12 11:57N 40°38' W 074°08'0 0.0
2017-Sep-12 11:27N 40°38' W 074°08'0 0.0
2017-Sep-12 10:45N 40°38' W 074°08'0 0.0
2017-Sep-12 10:30N 40°38' W 074°08'0 0.0
2017-Sep-12 09:45N 40°38' W 074°08'0 0.0
2017-Sep-12 09:27N 40°38' W 074°08'0 0.0
2017-Sep-12 08:57N 40°38' W 074°08'0 0.0
2017-Sep-12 08:21N 40°38' W 074°08'0 0.0
2017-Sep-12 08:00N 40°38' W 074°08'0 0.0
2017-Sep-12 07:06N 40°38' W 074°08'0 0.0
2017-Sep-12 06:54N 40°38' W 074°08'0 0.0
2017-Sep-12 06:27N 40°38' W 074°08'0 0.0
2017-Sep-12 05:57N 40°38' W 074°08'0 0.0
2017-Sep-12 05:27N 40°38' W 074°08'0 0.0
2017-Sep-12 05:00N 40°38' W 074°08'0 0.0
2017-Sep-12 04:30N 40°38' W 074°08'0 0.0
2017-Sep-12 04:00N 40°38' W 074°08'0 0.0
2017-Sep-12 03:30N 40°38' W 074°08'0 0.0
2017-Sep-12 03:00N 40°38' W 074°08'0 0.0
2017-Sep-12 02:29N 40°38' W 074°08'0 0.0
2017-Sep-12 02:01N 40°38' W 074°08'  

Dump ship's entire track history